Aktuální počasí v Česku a ve světě - METAR

Seznam meteostanic umístěných nejčasteji na letišti v ČR a ve světě

Vyhledat místa podle abecedy:
A B C D E F G H I J K L M N O P Q R S T U V W X Y Z

Filtrovat:

ID stanice:
a/nebo
Název místa (fulltext):
 
Místo (ID)Naposledy načteno 
Liberec (Liberec) 04.12.2020 08:00 UTC Zobrazit data
Místo: Liberec
Teplota: 2 °C (pocitová: -6.4 °C)
Vítr: 5 m/s z(e) 140°
Počasí: zataženo
Dohlednost: 8 km
Zákl. oblačnosti: 8/8 270 m
Vlhkost: 87%
Luká (Luka) 04.12.2020 08:00 UTC Zobrazit data
Místo: Luká
Teplota: 1 °C (pocitová: -9.5 °C)
Vítr: 8 m/s z(e) 150°
Počasí: zataženo
Dohlednost: 10 km
Zákl. oblačnosti: 8/8 90 m
Vlhkost: 93%
Lysá Hora (Lysa Hora) 03.12.2020 17:00 UTC Zobrazit data
Místo: Lysá Hora
Teplota: -2 °C (pocitová: -16 °C)
Vítr: 14 m/s z(e) 180°
Počasí: skoro zataženo
Dohlednost: 11 km
Zákl. oblačnosti: 7/8 90 m
Vlhkost: 93%
L'viv (UKLL) 13.12.2012 15:00 UTC  
La Palma (GCLA) 04.12.2020 08:00 UTC Zobrazit METAR
GCLA 040800Z 31007KT 9999 FEW045 19/13 Q1018
La Paz (SLLP) 04.12.2020 02:00 UTC Zobrazit METAR
SLLP 040200Z 09004KT 9999 FEW008 BKN200 07/05 Q1036
Laayoune (GMML) 04.12.2020 06:00 UTC Zobrazit METAR
GMML 040600Z 16004KT 6000 SCT013 13/12 Q1016 NOSIG
Larnaca (LCLK) 02.12.2020 19:00 UTC Zobrazit METAR
LCLK 021900Z 30006KT 9999 FEW020 15/12 Q1019 NOSIG
Leipzig-Halle (EDDP) 04.12.2020 07:50 UTC Zobrazit METAR
EDDP 040750Z 15012KT 9999 FEW040 00/M03 Q0993 TEMPO -FZRA
Libreville (FOOL) 04.12.2020 08:00 UTC Zobrazit METAR
FOOL 040800Z 18008KT 8000 SCT012 28/25 Q1013 NOSIG
Liege (EBLG) 04.12.2020 07:50 UTC Zobrazit METAR
EBLG 040750Z 20016KT 9999 FEW016 05/02 Q0982 TEMPO 20018G30KT
Liepaja (EVLA) 04.12.2020 07:50 UTC Zobrazit METAR
EVLA 040750Z AUTO 12011KT 9999 FEW016/// SCT073/// OVC130/// 01/M01 Q1008
Lille (LFQQ) 04.12.2020 08:00 UTC Zobrazit METAR
LFQQ 040800Z AUTO 19017KT 9999 BKN020 OVC027 06/03 Q0979 BECMG 20015G25KT
Lilongwe (FWLI) 04.06.2013 21:00 UTC Zobrazit METAR
FWLI 042100Z 05003KT CAVOK 14/11 Q1023 NOSIG
Lima - Callao (SPIM) 07.06.2019 22:00 UTC Zobrazit METAR
SPIM 072200Z /////KT 9999 BKN035 18/15 Q1015 RMK PP000
Limnos (LGLM) 04.12.2020 07:50 UTC Zobrazit METAR
LGLM 040750Z 09008KT 8000 FEW020 14/09 Q1013
Linz (LOWL) 04.12.2020 07:50 UTC Zobrazit METAR
LOWL 040750Z 27004KT 9999 VCFG NSC M04/M05 Q0995 R08/190195 NOSIG
Lisbon (LPPT) 04.12.2020 07:00 UTC Zobrazit METAR
LPPT 040700Z 29009KT 240V320 9999 FEW020 SCT030 12/08 Q1006
Liverpool (EGGP) 04.12.2020 07:50 UTC Zobrazit METAR
EGGP 040750Z 34015KT 9999 FEW021 BKN026 05/01 Q0976
Ljubljana (LJLJ) 04.12.2020 08:00 UTC Zobrazit METAR
LJLJ 040800Z VRB01KT 3000 BR SCT003 OVC033 M02/M03 Q1004 NOSIG
Lome (DXXX) 04.12.2020 08:00 UTC Zobrazit METAR
DXXX 040800Z 27007KT 9999 FEW013 29/25 Q1014 NOSIG
London (EGLL) 04.12.2020 07:50 UTC Zobrazit METAR
EGLL 040750Z AUTO 26012KT 9999 OVC011 03/02 Q0975 NOSIG
Luanda (FNLU) 04.12.2020 08:00 UTC Zobrazit METAR
FNLU 040800Z VRB02KT 9999 FEW020 BKN070 27/23 Q1013 NOSIG
Lulea (ESPA) 04.12.2020 07:50 UTC Zobrazit METAR
ESPA 040750Z 16011KT 9999 SCT014 BKN020 01/M01 Q1015
Lusaka (FLLS) 13.01.2014 07:00 UTC Zobrazit METAR
FLLS 130700Z 36009KT CAVOK 25/20 Q1019
Luxembourg Airport (ELLX) 04.12.2020 07:50 UTC Zobrazit METAR
ELLX 040750Z 18010KT 9999 FEW015 SCT017 05/03 Q0985 NOSIG
Lyon (LFLL) 04.12.2020 08:00 UTC Zobrazit METAR
LFLL 040800Z 17009KT 9999 -RA FEW011 BKN033 OVC050 07/05 Q0989 TEMPO 4500 RA
Reklama


Další české internetové stránky (nejen) o počasí najdete v katalogu TOPlist - weby o počasí nebo vyhledejte na internetu, co jste tu na 🌞 Slunečnu ⛅ zatím nenašli:
⭐ Přidat Slunečno.cz do oblíbených | 🏠 Nastavit Slunečno.cz jako HOMEPAGE

⬆️ Posunout stránku nahoru ⬆️
Reklama